Time;durP1;ratioP1;P1;durP2;ratioP2;P2;SDS_P1;SDS_P2;PMS_P1;PMS_P2;Temp;Humidity;BMP_temperature;BMP_pressure;BME280_temperature;BME280_humidity;BME280_pressure;Samples;Min_cycle;Max_cycle;Signal;HPM_P1;HPM_P2
2022/03/10 00:02:22;;;;;;;9.05;5.57;;;20.20;48.70;;;;;;4932404;28;89683;-86
2022/03/10 00:04:48;;;;;;;9.38;5.10;;;20.20;48.70;;;;;;4948143;28;90833;-85
2022/03/10 00:07:13;;;;;;;8.85;5.90;;;20.20;48.80;;;;;;4932850;28;87695;-87
2022/03/10 00:09:39;;;;;;;6.63;5.20;;;20.20;49.30;;;;;;4930367;28;88151;-88
2022/03/10 00:12:15;;;;;;;8.52;5.45;;;20.20;49.40;;;;;;4930338;28;90363;-85
2022/03/10 00:14:43;;;;;;;6.63;5.50;;;20.20;48.80;;;;;;4931368;28;88874;-85
2022/03/10 00:17:09;;;;;;;7.70;5.40;;;20.20;48.60;;;;;;4930232;28;91276;-85
2022/03/10 00:19:35;;;;;;;10.45;5.80;;;20.10;48.60;;;;;;4930646;28;86983;-86
2022/03/10 00:22:01;;;;;;;7.53;5.55;;;20.10;48.70;;;;;;4944955;28;89537;-86
2022/03/10 00:24:27;;;;;;;8.90;5.50;;;20.10;48.60;;;;;;4946097;28;90584;-86
2022/03/10 00:26:53;;;;;;;5.68;4.60;;;20.10;48.60;;;;;;4931028;28;87882;-86
2022/03/10 00:29:18;;;;;;;8.63;5.35;;;20.10;48.50;;;;;;4931291;28;87455;-87
2022/03/10 00:31:44;;;;;;;10.10;5.70;;;20.10;48.40;;;;;;4930300;28;89571;-86
2022/03/10 00:34:10;;;;;;;8.90;5.75;;;20.10;48.30;;;;;;4929517;28;90569;-86
2022/03/10 00:36:35;;;;;;;8.65;5.70;;;20.10;48.50;;;;;;4931317;28;87383;-87
2022/03/10 00:39:02;;;;;;;9.20;5.95;;;20.10;48.40;;;;;;4932083;28;88402;-86
2022/03/10 00:41:28;;;;;;;8.52;5.40;;;20.10;48.40;;;;;;4931083;28;87361;-87
2022/03/10 00:43:53;;;;;;;6.90;5.22;;;20.00;48.40;;;;;;4929565;28;90540;-86
2022/03/10 00:46:19;;;;;;;6.35;4.95;;;20.00;48.40;;;;;;4931212;28;87635;-86
2022/03/10 00:48:45;;;;;;;6.70;5.10;;;20.00;48.30;;;;;;4931733;28;87837;-85
2022/03/10 00:51:11;;;;;;;7.38;5.13;;;20.00;48.30;;;;;;4931414;28;87450;-86
2022/03/10 00:53:36;;;;;;;6.50;4.93;;;20.00;48.40;;;;;;4928741;28;90663;-86
2022/03/10 00:56:02;;;;;;;7.68;5.43;;;20.00;48.30;;;;;;4929488;28;89455;-88
2022/03/10 00:58:35;;;;;;;7.80;5.55;;;20.00;48.40;;;;;;4929716;28;87889;-85
2022/03/10 01:01:01;;;;;;;7.97;5.38;;;20.00;48.40;;;;;;4931153;28;87887;-85
2022/03/10 01:03:26;;;;;;;8.45;5.57;;;20.00;48.20;;;;;;4931277;28;88813;-85
2022/03/10 01:05:52;;;;;;;7.32;5.20;;;20.00;48.10;;;;;;4929957;28;91450;-86
2022/03/10 01:08:17;;;;;;;8.95;5.50;;;19.90;48.20;;;;;;4929871;28;87072;-85
2022/03/10 01:10:43;;;;;;;7.25;5.38;;;19.90;48.10;;;;;;4929524;28;89597;-85
2022/03/10 01:13:13;;;;;;;7.25;5.38;;;19.90;48.10;;;;;;4931416;28;87930;-86
2022/03/10 01:15:41;;;;;;;6.45;5.13;;;20.00;48.10;;;;;;4931673;28;87755;-86
2022/03/10 01:18:07;;;;;;;6.93;5.38;;;19.90;48.00;;;;;;4930537;28;86923;-85
2022/03/10 01:20:33;;;;;;;7.00;5.25;;;19.90;48.10;;;;;;4930112;28;88289;-87
2022/03/10 01:22:59;;;;;;;7.03;4.90;;;19.90;47.90;;;;;;4929480;28;90655;-85
2022/03/10 01:25:24;;;;;;;9.07;5.55;;;19.90;47.90;;;;;;4930860;28;87777;-86
2022/03/10 01:27:50;;;;;;;7.72;5.20;;;19.90;47.90;;;;;;4929341;28;88822;-87
2022/03/10 01:30:15;;;;;;;8.20;5.93;;;19.90;48.00;;;;;;4931495;28;87948;-87
2022/03/10 01:32:42;;;;;;;7.30;5.32;;;19.90;48.00;;;;;;4928486;28;90080;-85
2022/03/10 01:35:08;;;;;;;7.53;4.97;;;19.90;48.00;;;;;;4947239;28;90428;-85
2022/03/10 01:37:37;;;;;;;7.03;5.20;;;19.80;47.90;;;;;;4933423;28;87415;-87
2022/03/10 01:40:15;;;;;;;6.22;5.20;;;19.90;47.80;;;;;;4933898;28;87357;-88
2022/03/10 01:42:40;;;;;;;7.00;5.25;;;19.80;47.90;;;;;;4949485;28;91381;-86
2022/03/10 01:45:07;;;;;;;7.85;5.10;;;19.80;47.80;;;;;;4950156;28;90394;-85
2022/03/10 01:47:33;;;;;;;6.55;5.25;;;19.80;47.90;;;;;;4932559;28;87551;-87
2022/03/10 01:50:00;;;;;;;8.07;5.22;;;19.80;47.90;;;;;;4933447;28;87506;-86
2022/03/10 01:52:26;;;;;;;7.30;5.55;;;19.80;47.70;;;;;;4931389;28;91407;-85
2022/03/10 01:54:51;;;;;;;7.38;5.40;;;19.80;47.70;;;;;;4931707;28;91153;-86
2022/03/10 01:57:17;;;;;;;6.85;5.40;;;19.80;47.70;;;;;;4934843;28;87975;-85
2022/03/10 01:59:43;;;;;;;8.45;5.38;;;19.80;47.80;;;;;;4933026;28;89208;-87
2022/03/10 02:02:10;;;;;;;6.88;5.68;;;19.80;47.60;;;;;;4934074;28;87746;-86
2022/03/10 02:04:36;;;;;;;7.95;5.05;;;19.70;47.60;;;;;;4933822;28;86954;-87
2022/03/10 02:07:03;;;;;;;6.45;5.18;;;19.80;47.70;;;;;;4934155;28;87615;-86
2022/03/10 02:12:16;;;;;;;7.30;5.05;;;19.70;47.50;;;;;;4933715;28;87009;-88
2022/03/10 02:17:26;;;;;;;7.10;5.30;;;19.70;47.50;;;;;;4933355;28;88354;-87
2022/03/10 02:19:54;;;;;;;6.63;5.07;;;19.70;47.50;;;;;;4933302;28;87188;-87
2022/03/10 02:22:21;;;;;;;7.03;5.57;;;19.70;47.60;;;;;;4931827;28;90634;-87
2022/03/10 02:24:48;;;;;;;6.20;5.22;;;19.70;47.50;;;;;;4931506;28;90230;-87
2022/03/10 02:27:13;;;;;;;7.72;4.95;;;19.70;47.50;;;;;;4933700;28;87779;-87
2022/03/10 02:29:42;;;;;;;6.90;5.03;;;19.70;47.50;;;;;;4934116;28;87784;-87
2022/03/10 02:32:08;;;;;;;6.57;4.90;;;19.70;47.30;;;;;;4931751;28;88846;-87
2022/03/10 02:34:34;;;;;;;7.55;5.70;;;19.60;47.40;;;;;;4931704;28;90045;-87
2022/03/10 02:36:59;;;;;;;6.32;5.40;;;19.60;47.30;;;;;;4931795;28;87211;-86
2022/03/10 02:39:25;;;;;;;7.72;5.20;;;19.60;47.40;;;;;;4931561;28;89658;-86
2022/03/10 02:41:58;;;;;;;6.95;5.57;;;19.60;47.50;;;;;;4931963;28;91300;-87
2022/03/10 02:44:24;;;;;;;6.25;4.85;;;19.60;47.30;;;;;;4933677;28;88426;-86
2022/03/10 02:46:51;;;;;;;5.25;4.75;;;19.60;47.40;;;;;;4933339;28;86971;-87
2022/03/10 02:49:16;;;;;;;6.88;5.35;;;19.60;47.30;;;;;;4931456;28;89335;-88
2022/03/10 02:51:42;;;;;;;7.05;5.72;;;19.60;47.40;;;;;;4933285;28;88213;-87
2022/03/10 02:54:08;;;;;;;6.97;5.28;;;19.60;47.30;;;;;;4932506;28;89988;-86
2022/03/10 02:56:33;;;;;;;6.30;5.22;;;19.60;47.30;;;;;;4933356;28;86988;-87
2022/03/10 02:58:59;;;;;;;6.88;5.53;;;19.60;47.30;;;;;;4932630;28;86875;-87
2022/03/10 03:01:25;;;;;;;7.18;4.63;;;19.60;47.20;;;;;;4932987;28;88440;-87
2022/03/10 03:03:50;;;;;;;6.45;5.60;;;19.60;47.30;;;;;;4931554;28;89870;-87
2022/03/10 03:06:16;;;;;;;6.00;5.07;;;19.60;47.30;;;;;;4931667;28;88776;-86
2022/03/10 03:08:42;;;;;;;6.10;5.22;;;19.60;47.20;;;;;;4931373;28;89176;-85
2022/03/10 03:11:07;;;;;;;5.80;4.85;;;19.60;47.20;;;;;;4931536;28;89078;-86
2022/03/10 03:13:33;;;;;;;7.18;5.10;;;19.60;47.10;;;;;;4931781;28;89936;-86
2022/03/10 03:15:59;;;;;;;7.68;4.75;;;19.50;47.10;;;;;;4931956;28;87634;-89
2022/03/10 03:18:24;;;;;;;6.95;5.63;;;19.50;47.10;;;;;;4933360;28;86986;-87
2022/03/10 03:20:50;;;;;;;5.63;4.85;;;19.50;47.30;;;;;;4931702;28;88817;-89
2022/03/10 03:23:17;;;;;;;7.38;5.32;;;19.50;47.10;;;;;;4933539;28;86428;-87
2022/03/10 03:25:42;;;;;;;6.53;5.28;;;19.50;47.00;;;;;;4931960;28;87645;-88
2022/03/10 03:28:08;;;;;;;6.07;4.97;;;19.50;46.90;;;;;;4932163;28;87322;-86
2022/03/10 03:30:43;;;;;;;6.22;5.05;;;19.50;47.10;;;;;;4931030;28;88114;-87
2022/03/10 03:33:09;;;;;;;8.48;5.63;;;19.50;47.10;;;;;;4947027;28;91688;-86
2022/03/10 03:35:35;;;;;;;5.75;4.85;;;19.40;47.10;;;;;;4931141;28;87777;-85
2022/03/10 03:38:00;;;;;;;5.75;4.78;;;19.40;47.00;;;;;;4932792;28;86879;-88
2022/03/10 03:40:26;;;;;;;6.53;5.28;;;19.50;47.20;;;;;;4932937;28;87977;-85
2022/03/10 03:42:52;;;;;;;6.43;5.18;;;19.50;47.10;;;;;;4932951;28;88226;-87
2022/03/10 03:45:18;;;;;;;6.40;5.25;;;19.40;47.00;;;;;;4933442;28;87328;-87
2022/03/10 03:47:43;;;;;;;4.95;4.45;;;19.40;46.90;;;;;;4932457;28;86993;-87
2022/03/10 03:50:09;;;;;;;5.45;4.88;;;19.40;46.90;;;;;;4930963;28;90908;-86
2022/03/10 03:52:35;;;;;;;5.88;4.93;;;19.40;46.90;;;;;;4932118;28;87973;-88
2022/03/10 03:55:01;;;;;;;6.85;4.75;;;19.40;46.90;;;;;;4933007;28;88739;-88
2022/03/10 03:57:27;;;;;;;5.38;4.60;;;19.40;46.90;;;;;;4930678;28;88163;-87
2022/03/10 03:59:53;;;;;;;5.40;4.65;;;19.40;46.90;;;;;;4932584;28;87908;-86
2022/03/10 04:02:18;;;;;;;6.00;5.22;;;19.40;47.00;;;;;;4931460;28;88627;-87
2022/03/10 04:04:44;;;;;;;6.00;5.28;;;19.40;47.00;;;;;;4933040;28;87494;-87
2022/03/10 04:07:09;;;;;;;6.45;5.05;;;19.40;46.90;;;;;;4932295;28;87617;-85
2022/03/10 04:09:35;;;;;;;5.82;5.20;;;19.40;46.70;;;;;;4931349;28;88708;-85
2022/03/10 04:12:01;;;;;;;6.50;5.00;;;19.40;46.80;;;;;;4931052;28;90161;-86
2022/03/10 04:14:27;;;;;;;6.68;5.28;;;19.40;46.80;;;;;;4932687;28;87922;-88
2022/03/10 04:16:55;;;;;;;6.25;5.55;;;19.40;46.80;;;;;;4933032;28;87239;-88
2022/03/10 04:19:28;;;;;;;6.32;5.25;;;19.40;46.90;;;;;;4929307;28;91648;-87
2022/03/10 04:21:54;;;;;;;6.20;4.88;;;19.40;46.90;;;;;;4932103;28;88474;-87
2022/03/10 04:24:20;;;;;;;5.60;4.90;;;19.30;46.90;;;;;;4930534;28;87216;-86
2022/03/10 04:26:45;;;;;;;6.80;5.45;;;19.30;46.90;;;;;;4931060;28;89231;-87
2022/03/10 04:29:12;;;;;;;7.25;5.22;;;19.30;46.60;;;;;;4931418;28;91424;-86
2022/03/10 04:31:37;;;;;;;6.97;5.07;;;19.30;46.70;;;;;;4932608;28;88974;-86
2022/03/10 04:34:04;;;;;;;6.10;5.25;;;19.30;46.50;;;;;;4932714;28;87548;-85
2022/03/10 04:36:30;;;;;;;7.38;5.50;;;19.30;46.50;;;;;;4932892;28;86795;-86
2022/03/10 04:38:56;;;;;;;6.30;5.22;;;19.30;46.60;;;;;;4930893;28;89265;-86
2022/03/10 04:41:21;;;;;;;5.70;5.10;;;19.30;46.50;;;;;;4932387;28;87724;-86
2022/03/10 04:43:47;;;;;;;7.18;5.57;;;19.30;46.50;;;;;;4932341;28;87948;-88
2022/03/10 04:46:13;;;;;;;5.55;4.65;;;19.30;46.50;;;;;;4932001;28;87206;-89
2022/03/10 04:48:39;;;;;;;5.97;5.20;;;19.30;46.50;;;;;;4932264;28;88140;-85
2022/03/10 04:51:05;;;;;;;6.60;5.22;;;19.30;46.50;;;;;;4931849;28;87554;-86
2022/03/10 04:53:31;;;;;;;6.15;5.30;;;19.30;46.50;;;;;;4930061;28;87336;-88
2022/03/10 04:55:56;;;;;;;5.70;5.13;;;19.30;46.60;;;;;;4930024;28;88097;-87
2022/03/10 04:58:22;;;;;;;5.50;4.63;;;19.30;46.50;;;;;;4931732;28;87766;-86
2022/03/10 05:00:50;;;;;;;6.32;5.05;;;19.20;46.50;;;;;;4932084;28;87752;-87
2022/03/10 05:03:23;;;;;;;6.00;5.03;;;19.20;46.50;;;;;;4946732;28;87252;-86
2022/03/10 05:05:49;;;;;;;6.43;5.18;;;19.20;46.50;;;;;;4930684;28;89848;-87
2022/03/10 05:08:15;;;;;;;5.70;4.47;;;19.20;46.50;;;;;;4931814;28;90187;-88
2022/03/10 05:10:40;;;;;;;6.28;5.22;;;19.20;46.50;;;;;;4934690;28;89689;-86
2022/03/10 05:13:06;;;;;;;6.13;5.15;;;19.20;46.50;;;;;;4935084;28;86962;-86
2022/03/10 05:15:32;;;;;;;5.22;4.72;;;19.20;46.40;;;;;;4934814;28;87127;-85
2022/03/10 05:17:59;;;;;;;6.00;5.10;;;19.20;46.40;;;;;;4932280;28;90197;-87
2022/03/10 05:20:25;;;;;;;6.70;5.03;;;19.20;46.40;;;;;;4934874;28;87062;-85
2022/03/10 05:23:02;;;;;;;6.63;5.00;;;19.20;46.50;;;;;;4935226;28;87932;-87
2022/03/10 05:25:39;;;;;;;6.00;5.10;;;19.20;46.40;;;;;;4935362;28;86507;-87
2022/03/10 05:28:07;;;;;;;6.28;5.20;;;19.20;46.30;;;;;;4933700;28;90710;-86
2022/03/10 05:30:35;;;;;;;8.03;4.67;;;19.20;46.50;;;;;;4933183;28;90938;-85
2022/03/10 05:33:03;;;;;;;6.55;5.10;;;19.20;46.70;;;;;;4934443;28;88725;-88
2022/03/10 05:35:29;;;;;;;5.65;4.80;;;19.10;46.40;;;;;;4932290;28;89218;-89
2022/03/10 05:37:56;;;;;;;5.10;4.35;;;19.20;46.40;;;;;;4934710;28;87482;-86
2022/03/10 05:40:22;;;;;;;7.00;4.95;;;19.10;47.00;;;;;;4934514;28;87421;-86
2022/03/10 05:42:51;;;;;;;6.20;5.10;;;19.10;46.30;;;;;;4933457;28;87774;-88
2022/03/10 05:45:20;;;;;;;5.78;4.60;;;19.10;46.30;;;;;;4933293;28;89578;-88
2022/03/10 05:47:50;;;;;;;5.35;4.60;;;19.10;46.30;;;;;;4933617;28;91770;-87
2022/03/10 05:50:17;;;;;;;8.80;5.30;;;19.10;46.40;;;;;;4935566;28;87515;-88
2022/03/10 05:52:45;;;;;;;5.57;5.00;;;19.10;46.40;;;;;;4934899;28;87535;-87
2022/03/10 05:55:11;;;;;;;5.22;4.72;;;19.10;46.40;;;;;;4934697;28;86987;-86
2022/03/10 05:57:37;;;;;;;5.38;4.78;;;19.10;46.40;;;;;;4933838;28;88379;-86
2022/03/10 06:00:04;;;;;;;5.70;5.10;;;19.10;46.40;;;;;;4932685;28;91160;-88
2022/03/10 06:02:29;;;;;;;6.18;5.20;;;19.10;46.40;;;;;;4934733;28;87576;-85
2022/03/10 06:05:02;;;;;;;5.85;5.25;;;19.10;46.40;;;;;;4932774;28;89564;-89
2022/03/10 06:07:30;;;;;;;6.38;5.38;;;19.00;46.30;;;;;;4931661;28;90621;-86
2022/03/10 06:09:56;;;;;;;5.72;5.13;;;19.00;46.30;;;;;;4933489;28;87389;-89
2022/03/10 06:12:27;;;;;;;5.93;5.05;;;19.00;46.20;;;;;;4934012;28;87746;-89
2022/03/10 06:15:06;;;;;;;5.95;5.30;;;19.00;46.00;;;;;;4934609;28;86825;-86
2022/03/10 06:17:33;;;;;;;7.65;6.30;;;19.00;46.00;;;;;;4947505;28;90670;-90
2022/03/10 06:19:59;;;;;;;6.97;5.80;;;18.90;44.70;;;;;;4933268;28;89297;-86
2022/03/10 06:22:31;;;;;;;6.05;5.45;;;19.00;45.50;;;;;;4932497;28;87943;-87
2022/03/10 06:24:58;;;;;;;7.88;5.65;;;19.00;45.70;;;;;;4932490;28;89310;-87
2022/03/10 06:27:25;;;;;;;7.43;5.65;;;19.00;45.80;;;;;;4933699;28;88130;-86
2022/03/10 06:29:53;;;;;;;6.53;5.50;;;19.00;46.20;;;;;;4949126;28;90231;-87
2022/03/10 06:32:20;;;;;;;7.05;5.65;;;19.10;46.40;;;;;;4932719;28;87268;-88
2022/03/10 06:34:49;;;;;;;6.68;5.22;;;19.20;47.10;;;;;;4931618;28;91382;-88
2022/03/10 06:37:15;;;;;;;6.53;5.25;;;19.20;46.50;;;;;;4931299;28;90388;-87
2022/03/10 06:39:41;;;;;;;9.45;6.75;;;19.30;47.40;;;;;;4947948;28;90231;-88
2022/03/10 06:42:09;;;;;;;11.00;7.50;;;19.40;46.00;;;;;;4932592;28;87574;-87
2022/03/10 06:44:36;;;;;;;13.15;8.90;;;19.40;45.30;;;;;;4934147;28;88104;-87
2022/03/10 06:47:04;;;;;;;8.30;6.70;;;19.40;44.20;;;;;;4930906;28;91296;-87
2022/03/10 06:49:29;;;;;;;13.48;6.93;;;19.50;45.20;;;;;;4933662;28;87323;-87
2022/03/10 06:51:55;;;;;;;8.18;6.25;;;19.60;45.40;;;;;;4933949;28;87238;-87
2022/03/10 06:54:21;;;;;;;6.28;5.68;;;19.60;46.10;;;;;;4933240;28;86917;-87
2022/03/10 06:56:46;;;;;;;8.75;5.80;;;19.70;46.70;;;;;;4933023;28;87181;-84
2022/03/10 06:59:12;;;;;;;5.65;4.72;;;19.70;47.00;;;;;;4931435;28;90224;-88
2022/03/10 07:01:38;;;;;;;6.35;4.93;;;19.70;47.20;;;;;;4931782;28;87538;-88
2022/03/10 07:04:04;;;;;;;7.65;4.80;;;19.80;47.70;;;;;;4931558;28;89290;-85
2022/03/10 07:06:30;;;;;;;6.00;4.93;;;19.80;47.70;;;;;;4934020;28;88191;-88
2022/03/10 07:09:02;;;;;;;5.57;4.43;;;19.80;47.90;;;;;;4933477;28;87458;-85
2022/03/10 07:11:28;;;;;;;7.72;4.80;;;19.90;47.90;;;;;;4932080;28;88221;-87
2022/03/10 07:13:53;;;;;;;5.57;4.90;;;19.90;46.90;;;;;;4933228;28;87886;-86
2022/03/10 07:16:22;;;;;;;7.15;4.90;;;19.90;47.50;;;;;;4932994;28;90609;-85
2022/03/10 07:18:53;;;;;;;7.28;5.57;;;19.90;47.10;;;;;;4933422;28;90384;-86
2022/03/10 07:21:20;;;;;;;11.43;5.97;;;20.00;46.10;;;;;;4932642;28;87524;-86
2022/03/10 07:23:45;;;;;;;6.93;5.50;;;20.00;45.40;;;;;;4931732;28;90061;-88
2022/03/10 07:26:12;;;;;;;10.52;5.47;;;20.00;46.00;;;;;;4932199;28;90908;-86
2022/03/10 07:28:38;;;;;;;8.30;5.53;;;20.00;45.90;;;;;;4936629;28;87491;-86
2022/03/10 07:31:04;;;;;;;7.20;4.78;;;20.00;46.30;;;;;;4930652;28;87268;-86
2022/03/10 07:33:30;;;;;;;11.98;5.50;;;20.00;46.80;;;;;;4931893;28;88778;-87
2022/03/10 07:35:55;;;;;;;8.02;5.25;;;20.00;46.40;;;;;;4929448;28;92473;-87
2022/03/10 07:38:21;;;;;;;7.35;4.93;;;20.00;45.90;;;;;;4930408;28;91175;-86
2022/03/10 07:40:47;;;;;;;14.00;6.60;;;20.00;46.30;;;;;;4931782;28;87575;-87
2022/03/10 07:43:12;;;;;;;10.45;6.07;;;20.00;45.90;;;;;;4933374;28;88031;-90
2022/03/10 07:45:38;;;;;;;8.90;5.28;;;20.10;45.80;;;;;;4950937;28;90065;-88
2022/03/10 07:48:04;;;;;;;9.27;7.82;;;20.00;47.00;;;;;;4936426;28;87715;-90
2022/03/10 07:50:30;;;;;;;14.73;7.25;;;20.00;43.90;;;;;;4935089;28;88064;-89
2022/03/10 07:52:56;;;;;;;16.38;8.48;;;20.00;45.00;;;;;;4936545;28;86326;-87
2022/03/10 07:55:21;;;;;;;13.60;7.40;;;20.00;43.60;;;;;;4929966;28;90551;-88
2022/03/10 07:57:47;;;;;;;11.20;7.00;;;20.00;45.30;;;;;;4932065;28;87788;-90
2022/03/10 08:00:13;;;;;;;9.93;6.95;;;20.00;45.90;;;;;;4946313;28;88582;-88
2022/03/10 08:02:39;;;;;;;11.88;6.63;;;20.00;45.10;;;;;;4946518;28;90039;-88
2022/03/10 08:05:06;;;;;;;12.98;7.30;;;20.00;45.70;;;;;;4929554;28;91431;-87
2022/03/10 08:07:34;;;;;;;47.70;10.80;;;20.00;46.20;;;;;;4931400;28;88327;-87
2022/03/10 08:10:04;;;;;;;41.22;12.20;;;20.10;45.90;;;;;;4932417;28;87544;-88
2022/03/10 08:12:31;;;;;;;21.77;8.82;;;20.00;44.20;;;;;;4929502;28;90351;-87
2022/03/10 08:14:57;;;;;;;19.13;6.88;;;20.00;46.20;;;;;;4930508;28;87943;-91
2022/03/10 08:17:23;;;;;;;17.10;7.32;;;20.00;46.50;;;;;;4946361;28;90718;-86
2022/03/10 08:19:48;;;;;;;16.90;7.10;;;20.00;46.70;;;;;;4929001;28;87633;-86
2022/03/10 08:22:19;;;;;;;18.65;7.60;;;20.00;46.80;;;;;;4931523;28;86931;-86
2022/03/10 08:24:45;;;;;;;18.33;7.47;;;20.00;46.80;;;;;;4946873;28;91250;-86
2022/03/10 08:27:11;;;;;;;12.48;6.75;;;20.00;46.80;;;;;;4930285;28;89862;-86
2022/03/10 08:29:37;;;;;;;18.98;7.00;;;20.00;46.90;;;;;;4929966;28;87726;-86
2022/03/10 08:32:03;;;;;;;13.43;7.05;;;19.90;46.70;;;;;;4930070;28;89085;-85
2022/03/10 08:34:30;;;;;;;17.33;7.35;;;19.90;46.80;;;;;;4931703;28;87802;-88
2022/03/10 08:36:56;;;;;;;17.48;6.88;;;20.00;46.90;;;;;;4932169;28;88325;-86
2022/03/10 08:39:22;;;;;;;13.68;6.93;;;20.00;46.80;;;;;;4930961;28;87960;-86
2022/03/10 08:41:49;;;;;;;15.68;7.25;;;20.00;46.80;;;;;;4932997;28;87074;-86
2022/03/10 08:44:15;;;;;;;15.48;6.75;;;19.90;46.60;;;;;;4936119;28;90922;-87
2022/03/10 08:46:41;;;;;;;13.48;7.00;;;19.90;46.70;;;;;;4937042;28;90213;-87
2022/03/10 08:49:06;;;;;;;17.65;7.82;;;19.90;46.80;;;;;;4939486;28;88676;-85
2022/03/10 08:51:32;;;;;;;12.18;6.32;;;19.90;46.60;;;;;;4939403;28;88001;-88
2022/03/10 08:53:58;;;;;;;12.32;6.68;;;19.90;46.60;;;;;;4936989;28;91167;-85
2022/03/10 08:56:23;;;;;;;10.65;6.45;;;19.90;46.60;;;;;;4937581;28;87959;-86
2022/03/10 08:58:49;;;;;;;16.30;7.63;;;19.90;46.70;;;;;;4936116;28;86933;-86
2022/03/10 09:01:15;;;;;;;11.40;6.50;;;19.90;46.70;;;;;;4935672;28;89451;-87
2022/03/10 09:03:40;;;;;;;14.82;6.72;;;19.90;46.60;;;;;;4938763;28;88272;-88
2022/03/10 09:06:07;;;;;;;13.60;6.65;;;19.90;46.60;;;;;;4939676;28;86740;-87
2022/03/10 09:08:33;;;;;;;13.35;6.65;;;19.90;46.60;;;;;;4936714;28;87358;-87
2022/03/10 09:10:59;;;;;;;9.25;6.05;;;19.90;46.60;;;;;;4935856;28;89734;-86
2022/03/10 09:13:25;;;;;;;14.05;6.72;;;19.90;46.80;;;;;;4938186;28;88837;-86
2022/03/10 09:15:51;;;;;;;11.13;6.97;;;19.90;46.60;;;;;;4938667;28;88161;-87
2022/03/10 09:18:17;;;;;;;13.10;6.97;;;19.90;46.80;;;;;;4938303;28;88064;-87
2022/03/10 09:20:42;;;;;;;13.30;6.53;;;19.90;46.80;;;;;;4938471;28;87463;-86
2022/03/10 09:23:08;;;;;;;8.40;5.80;;;19.90;46.70;;;;;;4936984;28;90531;-87
2022/03/10 09:25:34;;;;;;;11.30;5.82;;;20.00;46.90;;;;;;4936170;28;90389;-85
2022/03/10 09:27:59;;;;;;;15.20;6.50;;;19.90;46.80;;;;;;4936144;28;87908;-85
2022/03/10 09:30:45;;;;;;;12.60;6.22;;;19.90;46.80;;;;;;4938056;28;86900;-86
2022/03/10 09:33:11;;;;;;;15.02;7.15;;;20.00;47.00;;;;;;4936499;28;90545;-85
2022/03/10 09:35:37;;;;;;;13.80;6.00;;;20.00;46.90;;;;;;4938061;28;87842;-84
2022/03/10 09:38:03;;;;;;;11.77;5.63;;;20.00;47.00;;;;;;4936215;28;88721;-84
2022/03/10 09:40:29;;;;;;;12.32;6.22;;;20.00;47.20;;;;;;4937821;28;87233;-86
2022/03/10 09:42:55;;;;;;;10.88;6.00;;;19.90;46.80;;;;;;4936522;28;90830;-85
2022/03/10 09:45:22;;;;;;;9.57;5.93;;;20.00;47.10;;;;;;4936321;28;89638;-84
2022/03/10 09:47:48;;;;;;;13.70;6.68;;;19.90;46.80;;;;;;4935557;28;87696;-84
2022/03/10 09:50:16;;;;;;;11.52;5.65;;;20.00;47.00;;;;;;4938434;28;87541;-87
2022/03/10 09:52:42;;;;;;;11.18;5.72;;;20.00;47.00;;;;;;4936638;28;90423;-85
2022/03/10 09:55:09;;;;;;;8.88;5.70;;;20.00;47.10;;;;;;4934470;28;88728;-86
2022/03/10 09:57:39;;;;;;;9.07;6.03;;;20.00;47.10;;;;;;4934110;28;87945;-85
2022/03/10 10:00:16;;;;;;;10.65;5.85;;;19.90;47.00;;;;;;4931790;28;89049;-86
2022/03/10 10:02:44;;;;;;;11.85;6.05;;;20.00;46.90;;;;;;4933874;28;89086;-85
2022/03/10 10:05:23;;;;;;;13.82;6.72;;;20.00;47.00;;;;;;4934278;28;91672;-87
2022/03/10 10:08:25;;;;;;;11.98;5.78;;;20.00;47.10;;;;;;4935139;28;87234;-84
2022/03/10 10:11:00;;;;;;;9.85;5.28;;;19.90;47.20;;;;;;4932682;28;89355;-85
2022/03/10 10:13:27;;;;;;;12.40;6.03;;;20.00;46.90;;;;;;4931762;28;89240;-85
2022/03/10 10:15:58;;;;;;;10.00;5.68;;;20.00;46.80;;;;;;4933517;28;87390;-86
2022/03/10 10:18:24;;;;;;;9.60;5.75;;;19.90;46.80;;;;;;4932056;28;87775;-87
2022/03/10 10:20:51;;;;;;;12.93;6.32;;;20.00;46.90;;;;;;4932836;28;88913;-85
2022/03/10 10:23:18;;;;;;;8.10;5.60;;;20.00;46.80;;;;;;4932072;28;91315;-84
2022/03/10 10:25:58;;;;;;;9.45;5.68;;;19.90;47.00;;;;;;4948537;28;90340;-85
2022/03/10 10:28:28;;;;;;;10.02;5.90;;;20.00;46.80;;;;;;4933276;28;87981;-85
2022/03/10 10:31:00;;;;;;;11.15;5.97;;;20.00;46.90;;;;;;4932946;28;87436;-85
2022/03/10 10:33:35;;;;;;;10.35;6.03;;;20.00;47.00;;;;;;4930927;28;87992;-84
2022/03/10 10:36:24;;;;;;;9.55;5.82;;;20.00;46.90;;;;;;4932607;28;90503;-85
2022/03/10 10:39:16;;;;;;;12.70;6.40;;;20.10;45.70;;;;;;4933002;28;87131;-85
2022/03/10 10:41:50;;;;;;;11.77;6.45;;;20.30;44.50;;;;;;4930383;28;87856;-84
2022/03/10 10:44:20;;;;;;;13.40;6.40;;;20.50;44.50;;;;;;4933786;28;89621;-86
2022/03/10 10:46:58;;;;;;;15.32;6.00;;;20.50;44.70;;;;;;4931534;28;90292;-87
2022/03/10 10:49:24;;;;;;;9.98;6.10;;;20.60;44.60;;;;;;4934450;28;87407;-86
2022/03/10 10:51:54;;;;;;;13.05;6.53;;;20.70;44.20;;;;;;4932465;28;89605;-86
2022/03/10 10:54:23;;;;;;;11.60;6.03;;;20.70;44.10;;;;;;4931536;28;91248;-86
2022/03/10 10:56:54;;;;;;;13.30;6.30;;;20.60;44.30;;;;;;4932591;28;88468;-86
2022/03/10 10:59:35;;;;;;;12.68;6.78;;;20.70;44.50;;;;;;4931957;28;87198;-85
2022/03/10 11:02:05;;;;;;;10.88;5.93;;;20.70;44.20;;;;;;4948088;28;88429;-85
2022/03/10 11:04:31;;;;;;;11.20;6.35;;;20.80;45.10;;;;;;4945964;28;90735;-85
2022/03/10 11:06:58;;;;;;;11.82;5.95;;;20.80;44.90;;;;;;4933148;28;88109;-86
2022/03/10 11:09:24;;;;;;;8.70;5.40;;;20.80;44.70;;;;;;4933945;28;86932;-84
2022/03/10 11:11:51;;;;;;;11.70;5.90;;;20.80;45.00;;;;;;4932344;28;87211;-85
2022/03/10 11:14:17;;;;;;;11.15;5.93;;;20.80;45.10;;;;;;4931029;28;90197;-87
2022/03/10 11:16:44;;;;;;;8.95;5.80;;;20.80;45.20;;;;;;4947112;28;90296;-85
2022/03/10 11:19:13;;;;;;;9.52;5.70;;;20.80;45.20;;;;;;4932398;28;87891;-86
2022/03/10 11:21:45;;;;;;;10.02;5.97;;;20.80;45.10;;;;;;4933874;28;87016;-87
2022/03/10 11:24:41;;;;;;;14.05;5.63;;;20.80;44.70;;;;;;4933266;28;87573;-85
2022/03/10 11:27:12;;;;;;;8.55;5.70;;;20.80;45.60;;;;;;4925134;28;88189;-87
2022/03/10 11:29:38;;;;;;;11.10;6.00;;;20.80;45.40;;;;;;4933255;28;87916;-85
2022/03/10 11:32:06;;;;;;;10.18;6.10;;;20.80;45.80;;;;;;4932597;28;87080;-84
2022/03/10 11:34:53;;;;;;;11.52;5.63;;;20.80;44.70;;;;;;4930647;28;90717;-86
2022/03/10 11:37:40;;;;;;;10.43;5.93;;;20.80;45.40;;;;;;4947634;28;90215;-86
2022/03/10 11:40:11;;;;;;;10.48;5.95;;;20.80;45.30;;;;;;4931275;28;87820;-85
2022/03/10 11:42:37;;;;;;;10.90;6.55;;;20.90;45.30;;;;;;4932782;28;87692;-85
2022/03/10 11:45:18;;;;;;;10.18;6.10;;;20.80;45.50;;;;;;4947135;28;91641;-87
2022/03/10 11:47:45;;;;;;;9.25;5.45;;;20.90;45.40;;;;;;4928050;28;91714;-87
2022/03/10 11:50:22;;;;;;;9.05;5.57;;;20.90;45.20;;;;;;4931792;28;86931;-84
2022/03/10 11:52:58;;;;;;;8.77;5.93;;;20.90;45.40;;;;;;4933460;28;87154;-87
2022/03/10 11:55:38;;;;;;;9.60;6.28;;;20.90;45.20;;;;;;4947125;28;89628;-84
2022/03/10 11:58:06;;;;;;;10.18;6.20;;;20.90;44.70;;;;;;4929906;28;90264;-85
2022/03/10 12:00:41;;;;;;;8.35;5.75;;;20.90;46.10;;;;;;4932059;28;87382;-85
2022/03/10 12:03:07;;;;;;;8.65;5.88;;;20.90;45.70;;;;;;4928577;28;89266;-85
2022/03/10 12:06:13;;;;;;;11.25;6.28;;;20.90;46.00;;;;;;4929112;28;90868;-85
2022/03/10 12:08:42;;;;;;;8.75;6.15;;;20.90;45.00;;;;;;4874084;28;90135;-85
2022/03/10 12:11:20;;;;;;;11.23;6.63;;;20.90;45.10;;;;;;4923757;28;87931;-85
2022/03/10 12:13:46;;;;;;;15.63;6.07;;;21.00;44.60;;;;;;4931515;28;88431;-86
2022/03/10 12:16:24;;;;;;;10.45;5.63;;;20.90;45.50;;;;;;4930115;28;90014;-85
2022/03/10 12:18:51;;;;;;;11.10;6.95;;;21.00;44.80;;;;;;4930327;28;87327;-85
2022/03/10 12:21:30;;;;;;;15.07;6.57;;;21.00;43.60;;;;;;4931980;28;87232;-86
2022/03/10 12:24:01;;;;;;;12.15;7.10;;;21.00;44.40;;;;;;4931493;28;87858;-85
2022/03/10 12:26:43;;;;;;;11.02;6.30;;;21.00;44.50;;;;;;4946584;28;90079;-86
2022/03/10 12:29:11;;;;;;;16.45;6.57;;;21.00;45.70;;;;;;4931176;28;89980;-85
2022/03/10 12:31:39;;;;;;;12.75;7.57;;;21.00;45.70;;;;;;4932276;28;86953;-84
2022/03/10 12:34:07;;;;;;;17.48;6.90;;;21.00;45.60;;;;;;4909988;28;89872;-84
2022/03/10 12:36:42;;;;;;;14.38;6.85;;;21.00;45.70;;;;;;4940567;28;91724;-86
2022/03/10 12:39:14;;;;;;;16.73;6.25;;;21.00;45.10;;;;;;4931429;28;89423;-85
2022/03/10 12:41:42;;;;;;;11.77;6.80;;;21.00;46.00;;;;;;4932691;28;87350;-84
2022/03/10 12:44:10;;;;;;;10.82;6.55;;;21.00;45.50;;;;;;4930994;28;89124;-84
2022/03/10 12:46:38;;;;;;;12.88;6.78;;;21.00;45.00;;;;;;4932530;28;87801;-85
2022/03/10 12:49:26;;;;;;;14.98;9.38;;;21.00;45.90;;;;;;4932921;28;87666;-84
2022/03/10 12:51:57;;;;;;;22.95;7.43;;;21.00;39.60;;;;;;4931071;28;87253;-84
2022/03/10 12:54:23;;;;;;;20.55;6.97;;;21.00;43.50;;;;;;4933889;28;86890;-84